sensor_id;sensor_type;location;lat;lon;timestamp;temperature;humidity
12374;DHT22;6251;51.762;8.660;2023-11-18T00:09:44;2.40;99.90
12374;DHT22;6251;51.762;8.660;2023-11-18T02:01:29;0.80;99.90
12374;DHT22;6251;51.762;8.660;2023-11-18T02:11:36;0.80;99.90
12374;DHT22;6251;51.762;8.660;2023-11-18T03:53:15;0.20;99.90
12374;DHT22;6251;51.762;8.660;2023-11-18T05:04:17;-0.20;99.90
12374;DHT22;6251;51.762;8.660;2023-11-18T05:14:18;-0.20;99.90
12374;DHT22;6251;51.762;8.660;2023-11-18T05:24:18;-0.20;99.90
12374;DHT22;6251;51.762;8.660;2023-11-18T05:34:19;-0.30;99.90
12374;DHT22;6251;51.762;8.660;2023-11-18T05:44:21;-0.30;99.90
12374;DHT22;6251;51.762;8.660;2023-11-18T05:54:30;-0.40;99.90
12374;DHT22;6251;51.762;8.660;2023-11-18T06:04:31;-0.30;99.90
12374;DHT22;6251;51.762;8.660;2023-11-18T06:14:31;-0.40;99.90
12374;DHT22;6251;51.762;8.660;2023-11-18T06:24:32;-0.40;99.90
12374;DHT22;6251;51.762;8.660;2023-11-18T06:34:32;-0.40;99.90
12374;DHT22;6251;51.762;8.660;2023-11-18T06:44:33;-0.30;99.90
12374;DHT22;6251;51.762;8.660;2023-11-18T06:54:35;-0.20;99.90
12374;DHT22;6251;51.762;8.660;2023-11-18T07:04:35;-0.10;99.90
12374;DHT22;6251;51.762;8.660;2023-11-18T07:14:38;0.10;99.90
12374;DHT22;6251;51.762;8.660;2023-11-18T07:24:39;0.20;99.90
12374;DHT22;6251;51.762;8.660;2023-11-18T07:34:40;0.20;99.90
12374;DHT22;6251;51.762;8.660;2023-11-18T07:44:41;0.30;99.90
12374;DHT22;6251;51.762;8.660;2023-11-18T07:54:42;0.40;99.90
12374;DHT22;6251;51.762;8.660;2023-11-18T08:04:43;0.40;99.90
12374;DHT22;6251;51.762;8.660;2023-11-18T08:14:43;0.60;99.90
12374;DHT22;6251;51.762;8.660;2023-11-18T08:24:46;0.80;99.90
12374;DHT22;6251;51.762;8.660;2023-11-18T08:34:46;1.00;99.90
12374;DHT22;6251;51.762;8.660;2023-11-18T08:44:51;1.10;99.90
12374;DHT22;6251;51.762;8.660;2023-11-18T08:54:51;1.50;99.90
12374;DHT22;6251;51.762;8.660;2023-11-18T09:05:18;1.90;99.90
12374;DHT22;6251;51.762;8.660;2023-11-18T09:15:20;2.20;99.90
12374;DHT22;6251;51.762;8.660;2023-11-18T09:25:24;2.50;99.90
12374;DHT22;6251;51.762;8.660;2023-11-18T09:35:24;2.90;99.90
12374;DHT22;6251;51.762;8.660;2023-11-18T09:45:25;3.40;99.90
12374;DHT22;6251;51.762;8.660;2023-11-18T09:55:35;3.80;99.90
12374;DHT22;6251;51.762;8.660;2023-11-18T10:05:41;4.20;99.90
12374;DHT22;6251;51.762;8.660;2023-11-18T10:15:42;4.60;99.90
12374;DHT22;6251;51.762;8.660;2023-11-18T10:25:51;4.80;99.90
12374;DHT22;6251;51.762;8.660;2023-11-18T10:35:53;5.10;99.90
12374;DHT22;6251;51.762;8.660;2023-11-18T10:46:09;5.20;99.90
12374;DHT22;6251;51.762;8.660;2023-11-18T10:56:17;5.40;99.90
12374;DHT22;6251;51.762;8.660;2023-11-18T11:06:19;5.60;99.90
12374;DHT22;6251;51.762;8.660;2023-11-18T11:16:42;5.80;99.90
12374;DHT22;6251;51.762;8.660;2023-11-18T11:27:01;5.90;99.90
12374;DHT22;6251;51.762;8.660;2023-11-18T11:37:08;6.20;99.90
12374;DHT22;6251;51.762;8.660;2023-11-18T11:47:10;6.20;99.90
12374;DHT22;6251;51.762;8.660;2023-11-18T11:57:15;6.30;99.90
12374;DHT22;6251;51.762;8.660;2023-11-18T12:07:16;6.20;99.90
12374;DHT22;6251;51.762;8.660;2023-11-18T12:17:17;6.20;99.90
12374;DHT22;6251;51.762;8.660;2023-11-18T12:38:09;6.10;99.90
12374;DHT22;6251;51.762;8.660;2023-11-18T12:48:21;6.10;99.90
12374;DHT22;6251;51.762;8.660;2023-11-18T12:58:27;5.90;99.90
12374;DHT22;6251;51.762;8.660;2023-11-18T13:08:29;5.80;99.90
12374;DHT22;6251;51.762;8.660;2023-11-18T13:18:41;5.80;99.90
12374;DHT22;6251;51.762;8.660;2023-11-18T13:28:42;5.70;99.90
12374;DHT22;6251;51.762;8.660;2023-11-18T13:38:48;5.60;99.90
12374;DHT22;6251;51.762;8.660;2023-11-18T13:48:49;5.60;99.90
12374;DHT22;6251;51.762;8.660;2023-11-18T13:58:50;5.60;99.90
12374;DHT22;6251;51.762;8.660;2023-11-18T14:08:51;5.60;99.90
12374;DHT22;6251;51.762;8.660;2023-11-18T14:18:51;5.60;99.90
12374;DHT22;6251;51.762;8.660;2023-11-18T14:28:52;5.60;99.90
12374;DHT22;6251;51.762;8.660;2023-11-18T14:38:53;5.60;99.90
12374;DHT22;6251;51.762;8.660;2023-11-18T14:48:53;5.50;99.90
12374;DHT22;6251;51.762;8.660;2023-11-18T14:58:54;5.40;99.90
12374;DHT22;6251;51.762;8.660;2023-11-18T15:08:54;5.40;99.90
12374;DHT22;6251;51.762;8.660;2023-11-18T15:18:57;5.40;99.90
12374;DHT22;6251;51.762;8.660;2023-11-18T15:28:57;5.30;99.90
12374;DHT22;6251;51.762;8.660;2023-11-18T15:38:59;5.30;99.90
12374;DHT22;6251;51.762;8.660;2023-11-18T15:49:03;5.30;99.90
12374;DHT22;6251;51.762;8.660;2023-11-18T15:59:04;5.30;99.90
12374;DHT22;6251;51.762;8.660;2023-11-18T16:09:05;5.30;99.90
12374;DHT22;6251;51.762;8.660;2023-11-18T16:19:07;5.30;99.90
12374;DHT22;6251;51.762;8.660;2023-11-18T16:29:07;5.30;99.90
12374;DHT22;6251;51.762;8.660;2023-11-18T16:39:08;5.30;99.90
12374;DHT22;6251;51.762;8.660;2023-11-18T16:49:11;5.30;99.90
12374;DHT22;6251;51.762;8.660;2023-11-18T16:59:12;5.30;99.90
12374;DHT22;6251;51.762;8.660;2023-11-18T17:09:15;5.40;99.90
12374;DHT22;6251;51.762;8.660;2023-11-18T17:19:15;5.40;99.90
12374;DHT22;6251;51.762;8.660;2023-11-18T17:29:16;5.50;99.90
12374;DHT22;6251;51.762;8.660;2023-11-18T17:39:17;5.50;99.90
12374;DHT22;6251;51.762;8.660;2023-11-18T17:49:18;5.60;99.90
12374;DHT22;6251;51.762;8.660;2023-11-18T17:59:19;5.70;99.90
12374;DHT22;6251;51.762;8.660;2023-11-18T18:09:19;5.80;99.90
12374;DHT22;6251;51.762;8.660;2023-11-18T18:19:21;5.80;99.90
12374;DHT22;6251;51.762;8.660;2023-11-18T18:29:21;5.90;99.90
12374;DHT22;6251;51.762;8.660;2023-11-18T18:39:22;6.00;99.90
12374;DHT22;6251;51.762;8.660;2023-11-18T18:49:23;6.10;99.90
12374;DHT22;6251;51.762;8.660;2023-11-18T18:59:23;6.10;99.90
12374;DHT22;6251;51.762;8.660;2023-11-18T19:09:24;6.10;99.90
12374;DHT22;6251;51.762;8.660;2023-11-18T19:19:27;6.10;99.90
12374;DHT22;6251;51.762;8.660;2023-11-18T19:29:27;6.20;99.90
12374;DHT22;6251;51.762;8.660;2023-11-18T19:39:28;6.20;99.90
12374;DHT22;6251;51.762;8.660;2023-11-18T19:49:29;6.30;99.90
12374;DHT22;6251;51.762;8.660;2023-11-18T19:59:32;6.30;99.90
12374;DHT22;6251;51.762;8.660;2023-11-18T20:09:32;6.30;99.90
12374;DHT22;6251;51.762;8.660;2023-11-18T20:19:33;6.40;99.90
12374;DHT22;6251;51.762;8.660;2023-11-18T20:29:36;6.50;99.90
12374;DHT22;6251;51.762;8.660;2023-11-18T20:39:36;6.50;99.90
12374;DHT22;6251;51.762;8.660;2023-11-18T20:49:38;6.50;99.90
12374;DHT22;6251;51.762;8.660;2023-11-18T20:59:38;6.60;99.90
12374;DHT22;6251;51.762;8.660;2023-11-18T21:09:39;6.70;99.90
12374;DHT22;6251;51.762;8.660;2023-11-18T21:19:39;6.70;99.90
12374;DHT22;6251;51.762;8.660;2023-11-18T21:29:40;6.80;99.90
12374;DHT22;6251;51.762;8.660;2023-11-18T21:39:41;6.80;99.90
12374;DHT22;6251;51.762;8.660;2023-11-18T21:49:41;6.80;99.90
12374;DHT22;6251;51.762;8.660;2023-11-18T21:59:42;6.90;99.90
